Time;durP1;ratioP1;P1;durP2;ratioP2;P2;SDS_P1;SDS_P2;PMS_P1;PMS_P2;Temp;Humidity;BMP_temperature;BMP_pressure;BME280_temperature;BME280_humidity;BME280_pressure;Samples;Min_cycle;Max_cycle;Signal;HPM_P1;HPM_P2
2022/06/18 04:01:31;;;;;;;28.33;17.08;;;18.20;99.90;;;;;;6229566;22;20024;-83
2022/06/18 04:03:57;;;;;;;33.25;16.45;;;18.20;99.90;;;;;;6246966;23;20024;-81
2022/06/18 04:06:23;;;;;;;26.40;16.95;;;18.10;99.90;;;;;;6247278;23;20012;-83
2022/06/18 04:08:49;;;;;;;32.22;17.95;;;18.10;99.90;;;;;;6221351;23;20032;-80
2022/06/18 04:11:15;;;;;;;29.95;16.75;;;18.10;99.90;;;;;;6235470;22;20392;-81
2022/06/18 04:13:41;;;;;;;27.88;17.40;;;18.00;99.90;;;;;;6279330;22;20083;-82
2022/06/18 04:16:07;;;;;;;28.35;17.52;;;18.00;99.90;;;;;;6246869;23;20015;-82
2022/06/18 04:18:33;;;;;;;39.50;18.27;;;18.10;99.90;;;;;;6275145;22;20137;-84
2022/06/18 04:20:59;;;;;;;28.63;18.80;;;18.10;99.90;;;;;;6278937;22;20011;-83
2022/06/18 04:23:25;;;;;;;32.08;18.40;;;18.10;99.90;;;;;;6251736;22;20016;-82
2022/06/18 04:25:51;;;;;;;37.13;18.52;;;18.10;99.90;;;;;;6279414;22;20035;-83
2022/06/18 04:28:18;;;;;;;36.90;18.83;;;18.00;99.90;;;;;;6280459;22;20020;-81
2022/06/18 04:30:44;;;;;;;27.92;17.42;;;17.90;99.90;;;;;;6278695;22;20046;-84
2022/06/18 04:33:11;;;;;;;33.35;19.30;;;18.00;99.90;;;;;;6279383;22;20012;-83
2022/06/18 04:35:36;;;;;;;29.40;18.85;;;18.00;99.90;;;;;;6278988;22;20460;-83
2022/06/18 04:38:03;;;;;;;32.72;17.70;;;18.00;99.90;;;;;;6251799;22;20015;-83
2022/06/18 04:40:32;;;;;;;36.55;19.35;;;18.10;99.90;;;;;;6246932;22;20016;-80
2022/06/18 04:43:06;;;;;;;29.95;17.63;;;18.00;99.90;;;;;;6278434;22;20333;-82
2022/06/18 04:45:32;;;;;;;32.33;18.55;;;18.00;99.90;;;;;;6250710;22;20057;-84
2022/06/18 04:47:59;;;;;;;29.20;18.30;;;18.00;99.90;;;;;;6278855;22;20004;-84
2022/06/18 04:50:31;;;;;;;37.20;19.73;;;18.10;99.90;;;;;;6278640;22;20015;-84
2022/06/18 04:52:57;;;;;;;37.30;18.52;;;18.00;99.90;;;;;;6278922;22;20008;-82
2022/06/18 04:55:23;;;;;;;36.75;19.65;;;18.10;99.90;;;;;;6278987;22;20108;-84
2022/06/18 04:57:49;;;;;;;34.65;19.58;;;18.00;99.90;;;;;;6251368;22;20027;-81
2022/06/18 05:00:15;;;;;;;34.00;18.48;;;18.00;99.90;;;;;;6278013;22;20016;-82
2022/06/18 05:02:41;;;;;;;33.70;18.92;;;18.00;99.90;;;;;;6245832;23;20055;-80
2022/06/18 05:05:13;;;;;;;31.05;17.45;;;18.00;99.90;;;;;;6246146;23;20020;-80
2022/06/18 05:07:38;;;;;;;30.50;18.58;;;18.00;99.90;;;;;;6246043;23;20012;-81
2022/06/18 05:10:05;;;;;;;33.15;19.20;;;18.00;99.90;;;;;;6247844;23;20031;-78
2022/06/18 05:12:30;;;;;;;31.50;17.23;;;18.00;99.90;;;;;;6247563;22;20097;-82
2022/06/18 05:14:56;;;;;;;31.05;18.38;;;18.00;99.90;;;;;;6245839;23;20350;-82
2022/06/18 05:17:26;;;;;;;33.35;17.92;;;18.00;99.90;;;;;;6247760;22;20369;-82
2022/06/18 05:19:52;;;;;;;34.17;19.48;;;18.00;99.90;;;;;;6247725;22;20023;-81
2022/06/18 05:22:18;;;;;;;35.10;19.50;;;18.00;99.90;;;;;;6245700;23;20012;-83
2022/06/18 05:24:44;;;;;;;29.73;17.63;;;18.00;99.90;;;;;;6245903;23;20430;-81
2022/06/18 05:27:21;;;;;;;38.85;19.67;;;18.00;99.90;;;;;;6245873;23;20012;-82
2022/06/18 05:29:46;;;;;;;32.75;20.25;;;18.00;99.90;;;;;;6246124;23;20031;-80
2022/06/18 05:32:12;;;;;;;32.88;19.30;;;18.00;99.90;;;;;;6220445;23;20008;-81
2022/06/18 05:34:38;;;;;;;36.88;19.90;;;18.00;99.90;;;;;;6247907;23;20008;-82
2022/06/18 05:37:10;;;;;;;34.67;19.52;;;18.00;99.90;;;;;;6246918;22;20047;-82
2022/06/18 05:39:36;;;;;;;32.92;19.00;;;18.00;99.90;;;;;;6247283;22;20059;-82
2022/06/18 05:42:02;;;;;;;32.47;18.90;;;18.10;99.90;;;;;;6245720;23;20008;-79
2022/06/18 05:44:27;;;;;;;31.52;18.45;;;18.00;99.90;;;;;;6245636;23;20020;-81
2022/06/18 05:46:53;;;;;;;39.10;18.52;;;18.10;99.90;;;;;;6245708;23;20087;-81
2022/06/18 05:49:19;;;;;;;37.15;19.23;;;18.10;99.90;;;;;;6220568;23;20472;-80
2022/06/18 05:51:44;;;;;;;33.17;17.30;;;18.00;99.90;;;;;;6245575;23;20066;-81
2022/06/18 05:54:10;;;;;;;30.17;17.52;;;18.10;99.90;;;;;;6247343;23;20009;-81
2022/06/18 05:56:35;;;;;;;30.67;17.75;;;18.10;99.90;;;;;;6246669;23;20012;-82
2022/06/18 05:59:01;;;;;;;33.42;16.98;;;18.20;99.90;;;;;;6246979;23;20450;-80
2022/06/18 06:01:27;;;;;;;29.77;15.25;;;18.10;99.90;;;;;;6261741;22;20039;-83
2022/06/18 06:03:53;;;;;;;28.58;16.45;;;18.30;99.90;;;;;;6277979;22;20061;-81
2022/06/18 06:06:18;;;;;;;32.15;16.83;;;18.30;99.90;;;;;;6225614;22;20099;-81
2022/06/18 06:08:44;;;;;;;29.10;15.95;;;18.30;99.90;;;;;;6250841;22;20004;-83
2022/06/18 06:13:54;;;;;;;28.38;16.05;;;18.40;99.90;;;;;;6278118;22;20016;-83
2022/06/18 06:16:22;;;;;;;29.40;15.57;;;18.50;99.90;;;;;;6250932;22;20087;-83
2022/06/18 06:18:48;;;;;;;24.95;14.98;;;18.50;99.90;;;;;;6277956;22;20069;-83
2022/06/18 06:21:14;;;;;;;25.27;15.18;;;18.60;99.90;;;;;;6252420;22;20020;-85
2022/06/18 06:23:39;;;;;;;26.10;14.82;;;18.60;99.90;;;;;;6250200;22;20390;-86
2022/06/18 06:26:26;;;;;;;27.55;13.88;;;18.70;99.90;;;;;;6277954;22;20018;-85
2022/06/18 06:28:52;;;;;;;20.58;12.85;;;18.70;99.90;;;;;;6250661;22;20491;-83
2022/06/18 06:31:18;;;;;;;24.50;12.80;;;18.80;99.90;;;;;;6278006;22;20117;-83
2022/06/18 06:33:44;;;;;;;23.23;11.90;;;18.80;99.90;;;;;;6277735;22;20011;-80
2022/06/18 06:36:11;;;;;;;22.88;12.60;;;18.90;99.90;;;;;;6250376;22;20090;-82
2022/06/18 06:38:38;;;;;;;20.60;11.00;;;18.90;99.90;;;;;;6250371;22;20038;-82
2022/06/18 06:41:13;;;;;;;18.85;10.52;;;19.00;99.90;;;;;;6250161;22;20020;-83
2022/06/18 06:43:38;;;;;;;24.80;11.43;;;19.00;99.90;;;;;;6250125;22;20012;-83
2022/06/18 06:46:04;;;;;;;20.35;10.77;;;19.10;99.90;;;;;;6250307;22;20019;-83
2022/06/18 06:48:29;;;;;;;22.92;10.23;;;19.10;99.90;;;;;;6278017;22;20078;-81
2022/06/18 06:50:55;;;;;;;20.58;9.25;;;19.20;99.90;;;;;;6250570;22;20386;-83
2022/06/18 06:53:21;;;;;;;19.25;8.73;;;19.30;99.90;;;;;;6278099;22;20016;-83
2022/06/18 06:58:31;;;;;;;15.32;7.78;;;19.40;99.90;;;;;;6277984;22;20042;-83
2022/06/18 07:00:58;;;;;;;11.40;6.95;;;19.50;99.90;;;;;;6249890;22;20450;-84
2022/06/18 07:03:29;;;;;;;15.65;6.63;;;19.60;99.90;;;;;;6277468;22;20454;-83
2022/06/18 07:05:56;;;;;;;13.57;5.70;;;19.70;99.90;;;;;;6276880;22;20437;-81
2022/06/18 07:08:23;;;;;;;12.85;6.10;;;19.70;99.90;;;;;;6250006;22;20054;-85
2022/06/18 07:10:50;;;;;;;14.65;6.47;;;19.80;99.90;;;;;;6279679;22;20012;-83
2022/06/18 07:13:17;;;;;;;14.13;5.70;;;19.90;99.90;;;;;;6252559;22;20058;-82
2022/06/18 07:15:43;;;;;;;12.18;5.65;;;19.90;99.90;;;;;;6251820;22;20012;-83
2022/06/18 07:18:31;;;;;;;10.35;5.75;;;20.00;99.90;;;;;;6227841;22;20008;-82
2022/06/18 07:21:01;;;;;;;10.80;5.35;;;20.10;99.90;;;;;;6279593;22;20378;-83
2022/06/18 07:23:27;;;;;;;15.55;6.15;;;20.10;99.90;;;;;;6256509;22;20022;-82
2022/06/18 07:25:53;;;;;;;8.52;6.13;;;20.20;99.90;;;;;;6254499;22;20393;-84
2022/06/18 07:28:20;;;;;;;17.58;6.07;;;20.20;99.90;;;;;;6253591;22;20030;-78
2022/06/18 07:30:46;;;;;;;10.35;4.90;;;20.30;99.90;;;;;;6254104;22;20138;-84
2022/06/18 07:33:22;;;;;;;10.07;5.00;;;20.30;99.90;;;;;;6281436;22;20094;-84
2022/06/18 07:35:48;;;;;;;11.05;5.57;;;20.40;99.90;;;;;;6279959;22;20437;-83
2022/06/18 07:38:14;;;;;;;11.60;5.32;;;20.40;99.90;;;;;;6281463;22;20069;-83
2022/06/18 07:40:49;;;;;;;12.65;6.18;;;20.50;99.90;;;;;;6253659;22;20045;-81
2022/06/18 07:43:21;;;;;;;;;;;20.50;99.90;;;;;;6253185;22;20077;-84
2022/06/18 07:45:47;;;;;;;17.02;6.20;;;20.60;99.90;;;;;;6278963;22;20329;-83
2022/06/18 07:48:13;;;;;;;11.68;5.18;;;20.70;99.90;;;;;;6279939;22;20004;-83
2022/06/18 07:50:46;;;;;;;14.73;5.30;;;20.70;99.90;;;;;;6228610;22;20314;-82
2022/06/18 07:53:15;;;;;;;8.68;4.38;;;20.80;99.90;;;;;;6256896;22;20087;-83
2022/06/18 07:55:41;;;;;;;12.02;4.20;;;20.80;99.90;;;;;;6287219;22;20011;-84
2022/06/18 07:58:07;;;;;;;10.00;4.22;;;20.80;99.90;;;;;;6255744;22;20103;-85
2022/06/18 08:00:32;;;;;;;9.90;3.75;;;20.90;99.90;;;;;;6254837;22;20016;-83
2022/06/18 08:02:58;;;;;;;7.65;4.03;;;21.00;99.90;;;;;;6230708;22;20029;-86
2022/06/18 08:05:27;;;;;;;8.52;3.80;;;21.00;99.90;;;;;;6281753;22;20047;-85
2022/06/18 08:07:53;;;;;;;6.82;3.60;;;21.10;99.90;;;;;;6255440;22;20011;-85
2022/06/18 08:10:19;;;;;;;9.32;3.60;;;21.10;99.90;;;;;;6253613;22;20065;-82
2022/06/18 08:12:46;;;;;;;10.45;3.30;;;21.10;99.90;;;;;;6252703;22;20023;-81
2022/06/18 08:15:12;;;;;;;9.18;3.60;;;21.10;99.90;;;;;;6226582;22;20079;-84
2022/06/18 08:17:38;;;;;;;9.82;3.78;;;21.20;99.90;;;;;;6252174;22;20066;-82
2022/06/18 08:20:05;;;;;;;7.28;3.53;;;21.20;99.90;;;;;;6251941;22;20011;-85
2022/06/18 08:22:31;;;;;;;9.85;3.22;;;21.30;99.90;;;;;;6250320;22;20011;-83
2022/06/18 08:24:57;;;;;;;10.13;3.55;;;21.40;99.90;;;;;;6251496;22;20452;-82
2022/06/18 08:27:23;;;;;;;9.75;4.30;;;21.40;99.90;;;;;;6251425;22;20445;-83
2022/06/18 08:29:49;;;;;;;9.65;4.40;;;21.50;99.90;;;;;;6279563;22;20018;-83
2022/06/18 08:32:15;;;;;;;8.48;3.70;;;21.60;99.90;;;;;;6279016;22;20487;-84
2022/06/18 08:34:40;;;;;;;8.35;3.92;;;21.60;99.90;;;;;;6279109;22;20045;-82
2022/06/18 08:37:08;;;;;;;10.18;3.40;;;21.70;99.90;;;;;;6252050;22;20397;-86
2022/06/18 08:39:35;;;;;;;8.15;3.20;;;21.70;99.90;;;;;;6251885;22;20016;-85
2022/06/18 08:42:19;;;;;;;7.97;2.88;;;21.70;99.90;;;;;;6251546;22;20426;-83
2022/06/18 08:45:07;;;;;;;9.73;2.60;;;21.80;99.90;;;;;;6252154;22;20051;-84
2022/06/18 08:48:03;;;;;;;8.23;3.00;;;21.80;99.90;;;;;;6251600;22;20041;-83
2022/06/18 08:50:53;;;;;;;7.75;3.00;;;22.00;99.90;;;;;;6278802;22;20039;-87
2022/06/18 08:53:54;;;;;;;6.47;2.90;;;22.10;99.90;;;;;;6279081;22;20011;-83
2022/06/18 08:56:45;;;;;;;6.82;2.80;;;22.20;99.90;;;;;;6244214;22;20084;-85
2022/06/18 08:59:50;;;;;;;4.07;2.20;;;22.30;99.90;;;;;;6251476;22;20020;-84
2022/06/18 09:02:34;;;;;;;5.25;2.15;;;22.40;99.90;;;;;;6278440;22;20016;-83
2022/06/18 09:05:18;;;;;;;5.07;2.15;;;22.30;99.90;;;;;;6252180;22;20015;-84
2022/06/18 09:08:22;;;;;;;8.38;2.40;;;22.40;99.90;;;;;;6279350;22;20039;-83
2022/06/18 09:11:36;;;;;;;6.70;1.98;;;22.40;99.90;;;;;;6226079;22;20405;-83
2022/06/18 09:14:02;;;;;;;4.55;1.90;;;22.50;99.90;;;;;;6244483;22;20491;-86
2022/06/18 09:16:44;;;;;;;5.03;1.70;;;22.70;99.90;;;;;;6226927;22;20012;-84
2022/06/18 09:19:17;;;;;;;3.15;1.55;;;22.80;99.90;;;;;;6252191;22;20011;-83
2022/06/18 09:21:51;;;;;;;4.45;1.55;;;22.80;99.90;;;;;;6278979;22;20018;-83
2022/06/18 09:24:31;;;;;;;3.17;1.50;;;22.90;99.90;;;;;;6252002;22;20091;-85
2022/06/18 09:27:04;;;;;;;6.05;1.98;;;22.90;99.90;;;;;;6279537;22;20445;-85
2022/06/18 09:29:43;;;;;;;3.67;1.60;;;23.10;99.90;;;;;;6228072;22;20008;-84
2022/06/18 09:32:22;;;;;;;6.57;1.58;;;23.10;99.90;;;;;;6280316;22;20255;-85
2022/06/18 09:35:12;;;;;;;3.70;1.60;;;23.20;99.90;;;;;;6280197;22;20015;-86
2022/06/18 09:38:06;;;;;;;2.53;1.30;;;23.20;99.90;;;;;;6254742;22;20023;-81
2022/06/18 09:40:49;;;;;;;3.80;1.23;;;23.20;99.90;;;;;;6282757;22;20019;-84
2022/06/18 09:43:27;;;;;;;9.70;2.28;;;23.40;99.90;;;;;;6283999;22;20050;-85
2022/06/18 09:45:56;;;;;;;3.50;1.40;;;23.50;99.90;;;;;;6254449;22;20027;-82
2022/06/18 09:48:22;;;;;;;4.05;1.50;;;23.50;99.90;;;;;;6282694;22;20380;-82
2022/06/18 09:50:51;;;;;;;2.67;1.60;;;23.60;99.90;;;;;;6254655;22;20016;-86
2022/06/18 09:53:34;;;;;;;2.95;1.50;;;23.70;99.90;;;;;;6280349;22;20059;-84
2022/06/18 09:56:20;;;;;;;5.82;1.48;;;23.80;99.90;;;;;;6281478;22;20016;-85
2022/06/18 09:59:01;;;;;;;3.55;1.85;;;24.00;99.90;;;;;;6253220;22;20019;-86
2022/06/18 10:01:30;;;;;;;4.15;1.48;;;24.10;99.90;;;;;;6279860;22;20050;-84
2022/06/18 10:06:52;;;;;;;6.93;1.92;;;24.30;99.90;;;;;;6277058;22;20026;-85
2022/06/18 10:09:24;;;;;;;4.97;1.60;;;24.30;99.90;;;;;;6227428;22;20008;-85
2022/06/18 10:11:50;;;;;;;16.40;3.20;;;24.20;99.90;;;;;;6279879;22;20093;-82
2022/06/18 10:14:21;;;;;;;3.15;1.60;;;24.10;99.90;;;;;;6252850;22;20016;-85
2022/06/18 10:17:03;;;;;;;6.45;1.60;;;24.10;99.90;;;;;;6280382;22;20043;-86
2022/06/18 10:19:47;;;;;;;3.90;1.40;;;24.20;99.90;;;;;;6252118;22;20011;-87
2022/06/18 10:22:31;;;;;;;3.72;1.17;;;24.40;99.90;;;;;;6253008;22;20329;-86
2022/06/18 10:25:24;;;;;;;5.20;1.35;;;24.30;99.90;;;;;;6279490;22;20047;-84
2022/06/18 10:28:08;;;;;;;26.77;3.22;;;24.40;99.90;;;;;;6251713;22;20012;-82
2022/06/18 10:30:51;;;;;;;47.78;5.30;;;24.60;99.90;;;;;;6278721;22;20014;-81
2022/06/18 10:33:39;;;;;;;5.13;1.48;;;24.60;99.90;;;;;;6252583;22;20406;-85
2022/06/18 10:36:20;;;;;;;4.28;1.80;;;24.70;99.90;;;;;;6279025;22;20012;-86
2022/06/18 10:38:55;;;;;;;4.40;1.40;;;24.80;99.90;;;;;;6251993;22;20034;-84
2022/06/18 10:41:29;;;;;;;4.68;1.50;;;24.90;99.90;;;;;;6252869;22;20014;-84
2022/06/18 10:44:04;;;;;;;5.63;1.70;;;25.00;99.90;;;;;;6279314;22;20326;-87
2022/06/18 10:46:29;;;;;;;;;;;25.10;99.90;;;;;;6279046;22;20016;-84
2022/06/18 10:48:59;;;;;;;4.97;2.10;;;25.20;99.90;;;;;;6279062;22;19987;-86
2022/06/18 10:51:45;;;;;;;3.25;1.50;;;25.30;99.90;;;;;;6251572;22;20007;-84
2022/06/18 10:54:11;;;;;;;3.88;1.92;;;25.50;99.90;;;;;;6278801;22;20329;-84
2022/06/18 10:56:51;;;;;;;6.45;1.83;;;25.60;99.90;;;;;;6278557;22;20035;-84
2022/06/18 10:59:29;;;;;;;3.00;1.30;;;25.70;99.90;;;;;;6251558;22;20004;-86
2022/06/18 11:01:55;;;;;;;3.85;1.50;;;25.70;99.90;;;;;;6278276;22;20438;-85
2022/06/18 11:04:28;;;;;;;3.58;1.60;;;25.50;99.90;;;;;;6278586;22;20135;-84
2022/06/18 11:07:00;;;;;;;4.78;1.30;;;25.40;99.90;;;;;;6278516;22;20011;-82
2022/06/18 11:09:33;;;;;;;3.20;1.40;;;25.30;99.90;;;;;;6278658;22;20019;-83
2022/06/18 11:12:01;;;;;;;5.72;1.63;;;25.30;99.90;;;;;;6250815;22;20043;-83
2022/06/18 11:14:27;;;;;;;3.08;1.40;;;25.40;99.90;;;;;;6278430;22;20058;-83
2022/06/18 11:16:55;;;;;;;3.60;1.45;;;25.30;99.90;;;;;;6225845;22;20442;-83
2022/06/18 11:19:31;;;;;;;3.22;1.33;;;25.30;99.90;;;;;;6278289;22;20008;-85
2022/06/18 11:22:09;;;;;;;2.45;1.33;;;25.30;99.90;;;;;;6225468;22;20449;-82
2022/06/18 11:24:37;;;;;;;3.25;1.45;;;25.30;99.90;;;;;;6250943;22;20403;-85
2022/06/18 11:27:06;;;;;;;4.82;1.50;;;25.30;99.90;;;;;;6226676;22;20317;-83
2022/06/18 11:29:36;;;;;;;4.70;1.60;;;25.20;99.90;;;;;;6251346;22;20065;-83
2022/06/18 11:32:11;;;;;;;4.55;1.33;;;25.30;99.90;;;;;;6278448;22;20065;-83
2022/06/18 11:34:44;;;;;;;2.78;1.27;;;25.50;99.90;;;;;;6252207;22;20341;-83
2022/06/18 11:37:26;;;;;;;3.45;1.20;;;25.50;99.90;;;;;;6251615;22;20008;-85
2022/06/18 11:40:03;;;;;;;5.13;1.40;;;25.60;99.90;;;;;;6226392;22;20008;-86
2022/06/18 11:42:40;;;;;;;4.45;1.50;;;25.80;99.90;;;;;;6251228;22;20012;-83
2022/06/18 11:45:17;;;;;;;3.30;1.13;;;25.90;99.90;;;;;;6250417;22;20021;-84
2022/06/18 11:48:06;;;;;;;4.22;1.52;;;25.90;99.90;;;;;;6249382;22;20338;-86
2022/06/18 11:50:39;;;;;;;5.38;1.27;;;25.80;99.90;;;;;;6278226;22;20476;-86
2022/06/18 11:53:08;;;;;;;3.08;1.05;;;25.90;99.90;;;;;;6252673;22;20016;-85
2022/06/18 11:55:43;;;;;;;3.72;1.10;;;25.90;99.90;;;;;;6252801;22;20014;-86
2022/06/18 11:58:18;;;;;;;;;;;26.00;99.90;;;;;;6281370;22;20014;-83
2022/06/18 12:01:11;;;;;;;4.20;0.90;;;26.00;99.90;;;;;;6253386;22;19910;-85
2022/06/18 12:03:39;;;;;;;3.58;1.02;;;26.10;99.90;;;;;;6280484;22;20015;-84
2022/06/18 12:06:31;;;;;;;4.22;1.33;;;25.80;99.90;;;;;;6252989;22;20016;-86
2022/06/18 12:08:57;;;;;;;2.60;1.10;;;25.80;99.90;;;;;;6279964;22;20110;-85
2022/06/18 12:11:42;;;;;;;3.88;1.30;;;26.10;99.90;;;;;;6227287;22;20376;-84
2022/06/18 12:14:16;;;;;;;3.30;1.30;;;26.20;99.90;;;;;;6253968;22;20011;-81
2022/06/18 12:16:49;;;;;;;4.13;1.40;;;26.40;99.90;;;;;;6252609;22;20515;-88
2022/06/18 12:19:37;;;;;;;3.38;1.40;;;26.50;99.90;;;;;;6280463;22;20012;-84
2022/06/18 12:22:08;;;;;;;5.25;1.65;;;26.70;99.90;;;;;;6252975;22;20019;-81
2022/06/18 12:24:52;;;;;;;4.53;1.35;;;26.70;99.90;;;;;;6278931;22;20438;-83
2022/06/18 12:27:23;;;;;;;5.38;1.30;;;26.80;99.90;;;;;;6251959;22;20015;-85
2022/06/18 12:30:05;;;;;;;4.57;1.30;;;26.90;99.90;;;;;;6279768;22;20338;-87
2022/06/18 12:32:50;;;;;;;4.38;1.40;;;26.90;99.90;;;;;;6281999;22;20022;-82
2022/06/18 12:35:31;;;;;;;5.30;1.48;;;26.90;99.90;;;;;;6279592;22;20126;-85
2022/06/18 12:38:14;;;;;;;4.50;1.48;;;26.80;99.90;;;;;;6226662;22;20026;-83
2022/06/18 12:40:54;;;;;;;4.93;1.50;;;26.80;99.90;;;;;;6279757;22;20012;-84
2022/06/18 12:43:24;;;;;;;2.65;1.10;;;26.90;99.90;;;;;;6280272;22;20038;-84
2022/06/18 12:46:07;;;;;;;2.30;1.20;;;26.70;99.90;;;;;;6279322;22;20389;-83
2022/06/18 12:48:57;;;;;;;3.42;1.20;;;26.70;99.90;;;;;;6227074;22;20045;-85
2022/06/18 12:51:49;;;;;;;3.22;1.40;;;26.70;99.90;;;;;;6279254;22;20418;-85
2022/06/18 12:54:29;;;;;;;3.78;1.10;;;26.80;99.90;;;;;;6279539;22;20087;-84
2022/06/18 12:57:36;;;;;;;3.25;1.20;;;26.90;99.90;;;;;;6279755;22;20012;-84
2022/06/18 13:00:24;;;;;;;3.80;1.00;;;26.80;99.90;;;;;;6251547;22;20011;-84
2022/06/18 13:03:11;;;;;;;4.43;1.10;;;26.80;99.90;;;;;;6280788;22;20018;-85
2022/06/18 13:05:37;;;;;;;3.63;0.85;;;26.70;99.90;;;;;;6280187;22;20054;-84
2022/06/18 13:08:17;;;;;;;3.10;1.35;;;26.40;99.90;;;;;;6279425;22;20011;-85
2022/06/18 13:10:57;;;;;;;4.45;1.42;;;26.40;99.90;;;;;;6226777;22;20058;-84
2022/06/18 13:13:36;;;;;;;3.13;0.90;;;26.40;99.90;;;;;;6227279;22;20027;-84
2022/06/18 13:16:12;;;;;;;4.05;0.98;;;26.50;99.90;;;;;;6280203;22;20016;-85
2022/06/18 13:19:15;;;;;;;4.00;1.20;;;26.50;99.90;;;;;;6280563;22;20011;-84
2022/06/18 13:21:41;;;;;;;3.63;1.23;;;26.40;99.90;;;;;;6224003;22;20016;-86
2022/06/18 13:30:15;;;;;;;3.38;0.90;;;26.30;99.90;;;;;;6280957;22;20023;-85
2022/06/18 13:32:59;;;;;;;4.35;1.10;;;26.10;99.90;;;;;;6252473;22;20016;-84
2022/06/18 13:35:28;;;;;;;3.90;1.10;;;25.80;99.90;;;;;;6253001;22;20085;-87
2022/06/18 13:38:17;;;;;;;6.28;1.20;;;25.60;99.90;;;;;;6279854;22;20062;-89
2022/06/18 13:40:52;;;;;;;10.32;1.67;;;25.60;99.90;;;;;;6280897;22;20007;-88
2022/06/18 13:43:39;;;;;;;3.88;1.60;;;25.50;99.90;;;;;;6227881;22;20019;-87
2022/06/18 13:46:29;;;;;;;5.20;1.50;;;25.30;99.90;;;;;;6252823;22;20038;-86
2022/06/18 13:49:02;;;;;;;3.35;1.10;;;25.10;99.90;;;;;;6253213;22;20043;-82
2022/06/18 13:51:35;;;;;;;10.20;1.65;;;25.10;99.90;;;;;;6279941;22;20047;-89
2022/06/18 13:54:18;;;;;;;5.28;1.33;;;25.10;99.90;;;;;;6252484;22;20053;-86
2022/06/18 13:57:00;;;;;;;5.05;1.88;;;25.20;99.90;;;;;;6227707;22;20026;-89
2022/06/18 13:59:27;;;;;;;7.70;1.40;;;25.20;99.90;;;;;;6253519;22;20020;-85
2022/06/18 14:02:00;;;;;;;7.78;1.95;;;25.10;99.90;;;;;;6253253;22;20015;-88
2022/06/18 14:04:38;;;;;;;6.18;1.75;;;24.90;99.90;;;;;;6253461;22;20067;-87
2022/06/18 14:07:08;;;;;;;7.20;1.90;;;24.90;99.90;;;;;;6253258;22;20007;-87
2022/06/18 14:09:52;;;;;;;7.50;1.45;;;25.00;99.90;;;;;;6229589;22;20012;-87
2022/06/18 14:12:26;;;;;;;9.57;2.00;;;24.90;99.90;;;;;;6253189;22;20023;-86
2022/06/18 14:15:19;;;;;;;6.05;1.75;;;24.90;99.90;;;;;;6253351;22;20046;-85
2022/06/18 14:17:49;;;;;;;6.53;1.42;;;24.90;99.90;;;;;;6253572;22;20023;-89
2022/06/18 14:20:28;;;;;;;8.82;1.80;;;25.00;99.90;;;;;;6255382;22;20012;-83
2022/06/18 14:23:26;;;;;;;7.72;1.63;;;25.10;99.90;;;;;;6280883;22;20065;-84
2022/06/18 14:25:54;;;;;;;9.20;1.70;;;25.00;99.90;;;;;;6253189;22;20012;-84
2022/06/18 14:28:22;;;;;;;5.97;1.60;;;25.00;99.90;;;;;;6281447;22;20019;-83
2022/06/18 14:31:04;;;;;;;8.05;1.73;;;24.80;99.90;;;;;;6252608;22;20012;-85
2022/06/18 14:33:44;;;;;;;9.93;1.98;;;24.90;99.90;;;;;;6253444;22;20022;-85
2022/06/18 14:36:17;;;;;;;8.85;1.50;;;25.00;99.90;;;;;;6253246;22;20020;-84
2022/06/18 14:38:46;;;;;;;9.18;1.80;;;25.10;99.90;;;;;;6227175;22;20087;-86
2022/06/18 14:44:16;;;;;;;9.82;2.00;;;25.10;99.90;;;;;;6277760;22;20054;-76
2022/06/18 14:47:10;;;;;;;6.50;1.58;;;24.90;99.90;;;;;;6249193;22;20020;-83
2022/06/18 14:50:00;;;;;;;6.43;1.73;;;25.10;99.90;;;;;;6277055;22;20510;-81
2022/06/18 14:52:36;;;;;;;5.68;1.40;;;25.20;99.90;;;;;;6249919;22;20098;-86
2022/06/18 14:55:21;;;;;;;10.32;1.63;;;25.30;99.90;;;;;;6251663;22;20453;-85
2022/06/18 14:58:21;;;;;;;8.23;2.60;;;25.30;99.90;;;;;;6253465;22;20379;-88
2022/06/18 15:01:01;;;;;;;6.95;1.65;;;25.20;99.90;;;;;;6252218;22;20020;-84
2022/06/18 15:03:47;;;;;;;8.70;1.88;;;24.90;99.90;;;;;;6278937;22;20014;-83
2022/06/18 15:06:15;;;;;;;8.73;1.63;;;24.90;99.90;;;;;;6252110;22;20038;-85
2022/06/18 15:08:56;;;;;;;6.97;1.75;;;24.80;99.90;;;;;;6280364;22;20446;-85
2022/06/18 15:11:23;;;;;;;7.25;1.92;;;24.80;99.90;;;;;;6227432;22;20043;-86
2022/06/18 15:13:49;;;;;;;7.45;1.50;;;24.80;99.90;;;;;;6253741;22;20467;-85
2022/06/18 15:19:07;;;;;;;8.65;1.67;;;24.70;99.90;;;;;;6280588;22;20102;-86
2022/06/18 15:21:51;;;;;;;7.05;1.35;;;24.60;99.90;;;;;;6254314;22;20019;-80
2022/06/18 15:24:27;;;;;;;10.38;1.80;;;24.40;99.90;;;;;;6228184;22;20074;-83
2022/06/18 15:26:53;;;;;;;10.45;2.25;;;24.20;99.90;;;;;;6228564;22;20018;-82
2022/06/18 15:29:25;;;;;;;5.57;1.60;;;24.20;99.90;;;;;;6230153;22;20133;-88
2022/06/18 15:32:12;;;;;;;7.13;2.08;;;24.20;99.90;;;;;;6230084;22;20007;-85
2022/06/18 15:34:38;;;;;;;10.23;1.60;;;24.20;99.90;;;;;;6255858;22;20450;-82
2022/06/18 15:37:21;;;;;;;10.40;1.85;;;24.30;99.90;;;;;;6283762;22;20008;-88
2022/06/18 15:39:59;;;;;;;10.73;2.10;;;24.30;99.90;;;;;;6257872;22;20012;-81
2022/06/18 15:42:40;;;;;;;10.75;1.60;;;24.40;99.90;;;;;;6281777;22;20008;-83
2022/06/18 15:45:14;;;;;;;7.13;1.88;;;24.50;99.90;;;;;;6230171;22;20069;-86
2022/06/18 15:47:40;;;;;;;5.57;1.30;;;24.60;99.90;;;;;;6258413;22;20011;-85
2022/06/18 15:50:06;;;;;;;8.48;1.98;;;24.60;99.90;;;;;;6231062;22;20019;-84
2022/06/18 15:52:40;;;;;;;6.88;2.03;;;24.50;99.90;;;;;;6255446;22;20361;-85
2022/06/18 15:55:41;;;;;;;8.27;1.70;;;24.50;99.90;;;;;;6282344;22;20012;-83
2022/06/18 15:58:07;;;;;;;9.18;1.33;;;24.50;99.90;;;;;;6248022;22;20023;-85
2022/06/18 16:00:36;;;;;;;5.05;1.10;;;24.60;99.90;;;;;;6228659;22;20008;-86
2022/06/18 16:03:08;;;;;;;5.55;1.40;;;24.60;99.90;;;;;;6254260;22;20346;-85
2022/06/18 16:05:39;;;;;;;5.00;1.38;;;24.70;99.90;;;;;;6255681;22;20346;-83
2022/06/18 16:08:07;;;;;;;7.60;1.63;;;24.60;99.90;;;;;;6257233;22;20012;-83
2022/06/18 16:10:42;;;;;;;6.45;1.77;;;24.60;99.90;;;;;;6281702;22;20014;-83
2022/06/18 16:13:26;;;;;;;6.50;1.40;;;24.60;99.90;;;;;;6282937;22;20334;-83
2022/06/18 16:15:55;;;;;;;6.40;1.60;;;24.50;99.90;;;;;;6256601;22;20011;-85
2022/06/18 16:18:33;;;;;;;7.63;1.60;;;24.40;99.90;;;;;;6256981;22;20015;-86
2022/06/18 16:21:02;;;;;;;6.07;1.70;;;24.20;99.90;;;;;;6256323;22;20015;-84
2022/06/18 16:23:29;;;;;;;5.50;1.50;;;23.90;99.90;;;;;;6253509;22;20016;-85
2022/06/18 16:25:56;;;;;;;7.95;1.67;;;23.60;99.90;;;;;;6281803;22;20012;-83
2022/06/18 16:28:34;;;;;;;5.15;1.23;;;23.40;99.90;;;;;;6284202;22;20049;-86
2022/06/18 16:31:13;;;;;;;5.60;1.33;;;23.30;99.90;;;;;;6253820;22;20018;-83
2022/06/18 16:33:44;;;;;;;9.63;4.05;;;23.20;99.90;;;;;;6281714;22;20086;-84
2022/06/18 16:36:20;;;;;;;9.10;4.25;;;23.10;99.90;;;;;;6254037;22;20097;-83
2022/06/18 16:38:46;;;;;;;13.75;4.75;;;23.10;99.90;;;;;;6254231;22;20112;-82
2022/06/18 16:41:14;;;;;;;18.77;6.82;;;23.10;99.90;;;;;;6253301;22;20111;-87
2022/06/18 16:44:04;;;;;;;13.63;4.70;;;23.00;99.90;;;;;;6253943;22;20020;-87
2022/06/18 16:46:32;;;;;;;19.60;9.13;;;22.90;99.90;;;;;;6236852;22;20030;-81
2022/06/18 16:49:01;;;;;;;22.65;11.55;;;22.90;99.90;;;;;;6258239;22;20004;-86
2022/06/18 16:52:09;;;;;;;16.33;7.75;;;23.00;99.90;;;;;;6258751;22;20089;-83
2022/06/18 16:54:45;;;;;;;9.20;2.38;;;22.90;99.90;;;;;;6258227;22;20008;-88
2022/06/18 16:57:12;;;;;;;;;;;22.90;99.90;;;;;;6258110;22;20016;-87
2022/06/18 16:59:44;;;;;;;9.77;2.55;;;22.80;99.90;;;;;;6258383;22;19911;-88
2022/06/18 17:02:09;;;;;;;6.80;2.47;;;22.80;99.90;;;;;;6283895;22;20054;-88
2022/06/18 17:04:35;;;;;;;7.03;1.90;;;22.80;99.90;;;;;;6255560;22;20012;-85
2022/06/18 17:07:01;;;;;;;7.60;1.80;;;22.70;99.90;;;;;;6284436;22;20110;-84
2022/06/18 17:09:27;;;;;;;8.30;2.03;;;22.80;99.90;;;;;;6256346;22;20012;-87
2022/06/18 17:11:55;;;;;;;11.90;2.22;;;22.80;99.90;;;;;;6283606;22;20348;-85
2022/06/18 17:14:21;;;;;;;11.27;2.58;;;22.80;99.90;;;;;;6232344;22;20065;-85
2022/06/18 17:16:46;;;;;;;11.32;2.47;;;22.70;99.90;;;;;;6267893;22;20016;-84
2022/06/18 17:19:15;;;;;;;11.50;2.60;;;22.70;99.90;;;;;;6269257;22;20072;-84
2022/06/18 17:21:46;;;;;;;12.00;2.47;;;22.50;99.90;;;;;;6295452;22;20007;-83
2022/06/18 17:32:28;;;;;;;14.23;2.40;;;21.60;99.90;;;;;;6302706;22;20514;-83
2022/06/18 17:34:54;;;;;;;14.20;3.33;;;21.60;99.90;;;;;;6303871;22;20011;-85
2022/06/18 17:37:22;;;;;;;11.68;2.78;;;21.50;99.90;;;;;;6271174;22;20023;-86
2022/06/18 17:39:51;;;;;;;10.98;2.33;;;21.50;99.90;;;;;;6288405;22;20128;-88
2022/06/18 17:42:18;;;;;;;9.93;1.88;;;21.40;99.90;;;;;;6259539;22;20015;-88